sensor_id;sensor_type;location;lat;lon;timestamp;temperature;humidity
2889;DHT22;1453;42.708;23.282;2022-11-20T00:01:30;18.60;99.90
2889;DHT22;1453;42.708;23.282;2022-11-20T00:03:57;18.80;99.90
2889;DHT22;1453;42.708;23.282;2022-11-20T00:06:24;18.80;99.90
2889;DHT22;1453;42.708;23.282;2022-11-20T00:08:53;18.90;99.90
2889;DHT22;1453;42.708;23.282;2022-11-20T00:11:21;18.90;99.90
2889;DHT22;1453;42.708;23.282;2022-11-20T00:13:51;18.90;99.90
2889;DHT22;1453;42.708;23.282;2022-11-20T00:16:20;18.90;99.90
2889;DHT22;1453;42.708;23.282;2022-11-20T00:18:47;19.10;99.90
2889;DHT22;1453;42.708;23.282;2022-11-20T00:21:22;19.10;99.90
2889;DHT22;1453;42.708;23.282;2022-11-20T00:23:49;19.00;99.90
2889;DHT22;1453;42.708;23.282;2022-11-20T00:26:18;19.00;99.90
2889;DHT22;1453;42.708;23.282;2022-11-20T00:28:50;19.10;99.90
2889;DHT22;1453;42.708;23.282;2022-11-20T00:31:18;19.00;99.90
2889;DHT22;1453;42.708;23.282;2022-11-20T00:33:44;19.00;99.90
2889;DHT22;1453;42.708;23.282;2022-11-20T00:36:22;19.00;99.90
2889;DHT22;1453;42.708;23.282;2022-11-20T00:38:53;19.00;99.90
2889;DHT22;1453;42.708;23.282;2022-11-20T00:41:21;19.00;99.90
2889;DHT22;1453;42.708;23.282;2022-11-20T00:43:47;19.00;99.90
2889;DHT22;1453;42.708;23.282;2022-11-20T00:46:17;18.90;99.90
2889;DHT22;1453;42.708;23.282;2022-11-20T00:48:45;18.90;99.90
2889;DHT22;1453;42.708;23.282;2022-11-20T00:51:13;18.90;99.90
2889;DHT22;1453;42.708;23.282;2022-11-20T00:53:41;18.90;99.90
2889;DHT22;1453;42.708;23.282;2022-11-20T00:56:12;18.70;99.90
2889;DHT22;1453;42.708;23.282;2022-11-20T00:58:41;18.60;99.90
2889;DHT22;1453;42.708;23.282;2022-11-20T01:01:10;18.60;99.90
2889;DHT22;1453;42.708;23.282;2022-11-20T01:03:40;18.60;99.90
2889;DHT22;1453;42.708;23.282;2022-11-20T01:06:22;18.60;99.90
2889;DHT22;1453;42.708;23.282;2022-11-20T01:08:53;18.60;99.90
2889;DHT22;1453;42.708;23.282;2022-11-20T01:11:25;18.50;99.90
2889;DHT22;1453;42.708;23.282;2022-11-20T01:13:54;18.40;99.90
2889;DHT22;1453;42.708;23.282;2022-11-20T01:16:25;18.40;99.90
2889;DHT22;1453;42.708;23.282;2022-11-20T01:18:57;18.50;99.90
2889;DHT22;1453;42.708;23.282;2022-11-20T01:21:30;18.40;99.90
2889;DHT22;1453;42.708;23.282;2022-11-20T01:24:01;18.60;99.90
2889;DHT22;1453;42.708;23.282;2022-11-20T01:26:30;18.60;99.90
2889;DHT22;1453;42.708;23.282;2022-11-20T01:28:58;18.70;99.90
2889;DHT22;1453;42.708;23.282;2022-11-20T01:31:25;18.90;99.90
2889;DHT22;1453;42.708;23.282;2022-11-20T01:33:57;18.70;99.90
2889;DHT22;1453;42.708;23.282;2022-11-20T01:36:26;18.80;99.90
2889;DHT22;1453;42.708;23.282;2022-11-20T01:38:59;18.80;99.90
2889;DHT22;1453;42.708;23.282;2022-11-20T01:41:28;18.90;99.90
2889;DHT22;1453;42.708;23.282;2022-11-20T01:44:19;18.80;99.90
2889;DHT22;1453;42.708;23.282;2022-11-20T01:47:03;18.90;99.90
2889;DHT22;1453;42.708;23.282;2022-11-20T01:52:19;18.80;99.90
2889;DHT22;1453;42.708;23.282;2022-11-20T01:54:56;18.80;99.90
2889;DHT22;1453;42.708;23.282;2022-11-20T01:57:34;18.80;99.90
2889;DHT22;1453;42.708;23.282;2022-11-20T02:00:10;18.60;99.90
2889;DHT22;1453;42.708;23.282;2022-11-20T02:02:40;18.60;99.90
2889;DHT22;1453;42.708;23.282;2022-11-20T02:08:09;18.60;99.90
2889;DHT22;1453;42.708;23.282;2022-11-20T02:10:35;18.50;99.90
2889;DHT22;1453;42.708;23.282;2022-11-20T02:13:01;18.40;99.90
2889;DHT22;1453;42.708;23.282;2022-11-20T02:15:45;18.50;99.90
2889;DHT22;1453;42.708;23.282;2022-11-20T02:18:14;18.40;99.90
2889;DHT22;1453;42.708;23.282;2022-11-20T02:20:49;18.40;99.90
2889;DHT22;1453;42.708;23.282;2022-11-20T02:23:53;18.30;99.90
2889;DHT22;1453;42.708;23.282;2022-11-20T02:26:54;18.50;99.90
2889;DHT22;1453;42.708;23.282;2022-11-20T02:29:27;18.40;99.90
2889;DHT22;1453;42.708;23.282;2022-11-20T02:31:56;18.30;99.90
2889;DHT22;1453;42.708;23.282;2022-11-20T02:34:22;18.30;99.90
2889;DHT22;1453;42.708;23.282;2022-11-20T02:36:49;18.40;99.90
2889;DHT22;1453;42.708;23.282;2022-11-20T02:39:16;18.20;99.90
2889;DHT22;1453;42.708;23.282;2022-11-20T02:41:42;18.20;99.90
2889;DHT22;1453;42.708;23.282;2022-11-20T02:44:08;18.20;99.90
2889;DHT22;1453;42.708;23.282;2022-11-20T02:46:34;18.20;99.90
2889;DHT22;1453;42.708;23.282;2022-11-20T02:49:02;18.20;99.90
2889;DHT22;1453;42.708;23.282;2022-11-20T02:51:29;18.10;99.90
2889;DHT22;1453;42.708;23.282;2022-11-20T02:53:55;18.00;99.90
2889;DHT22;1453;42.708;23.282;2022-11-20T02:56:21;18.00;99.90
2889;DHT22;1453;42.708;23.282;2022-11-20T02:58:47;17.90;99.90
2889;DHT22;1453;42.708;23.282;2022-11-20T03:01:13;17.90;99.90
2889;DHT22;1453;42.708;23.282;2022-11-20T03:03:39;17.80;99.90
2889;DHT22;1453;42.708;23.282;2022-11-20T03:06:05;17.80;99.90
2889;DHT22;1453;42.708;23.282;2022-11-20T03:08:31;17.70;99.90
2889;DHT22;1453;42.708;23.282;2022-11-20T03:11:03;17.70;99.90
2889;DHT22;1453;42.708;23.282;2022-11-20T03:13:31;17.70;99.90
2889;DHT22;1453;42.708;23.282;2022-11-20T03:15:57;17.70;99.90
2889;DHT22;1453;42.708;23.282;2022-11-20T03:18:23;17.70;99.90
2889;DHT22;1453;42.708;23.282;2022-11-20T03:20:49;17.70;99.90
2889;DHT22;1453;42.708;23.282;2022-11-20T03:23:14;17.70;99.90
2889;DHT22;1453;42.708;23.282;2022-11-20T03:25:40;17.60;99.90
2889;DHT22;1453;42.708;23.282;2022-11-20T03:28:06;17.60;99.90
2889;DHT22;1453;42.708;23.282;2022-11-20T03:30:32;17.60;99.90
2889;DHT22;1453;42.708;23.282;2022-11-20T03:32:57;17.60;99.90
2889;DHT22;1453;42.708;23.282;2022-11-20T03:35:23;17.70;99.90
2889;DHT22;1453;42.708;23.282;2022-11-20T03:37:49;17.70;99.90
2889;DHT22;1453;42.708;23.282;2022-11-20T03:40:15;17.60;99.90
2889;DHT22;1453;42.708;23.282;2022-11-20T03:42:41;17.60;99.90
2889;DHT22;1453;42.708;23.282;2022-11-20T03:45:14;17.90;99.90
2889;DHT22;1453;42.708;23.282;2022-11-20T03:47:44;17.80;99.90
2889;DHT22;1453;42.708;23.282;2022-11-20T03:50:12;17.70;99.90
2889;DHT22;1453;42.708;23.282;2022-11-20T03:52:39;17.70;99.90
2889;DHT22;1453;42.708;23.282;2022-11-20T03:55:06;17.90;99.90
2889;DHT22;1453;42.708;23.282;2022-11-20T03:57:32;17.80;99.90
2889;DHT22;1453;42.708;23.282;2022-11-20T03:59:58;17.80;99.90
2889;DHT22;1453;42.708;23.282;2022-11-20T04:02:24;17.90;99.90
2889;DHT22;1453;42.708;23.282;2022-11-20T04:04:50;17.90;99.90
2889;DHT22;1453;42.708;23.282;2022-11-20T04:07:16;17.90;99.90
2889;DHT22;1453;42.708;23.282;2022-11-20T04:09:42;17.80;99.90
2889;DHT22;1453;42.708;23.282;2022-11-20T04:12:07;17.90;99.90
2889;DHT22;1453;42.708;23.282;2022-11-20T04:14:33;18.00;99.90
2889;DHT22;1453;42.708;23.282;2022-11-20T04:16:59;18.10;99.90
2889;DHT22;1453;42.708;23.282;2022-11-20T04:19:24;18.20;99.90
2889;DHT22;1453;42.708;23.282;2022-11-20T04:21:50;18.30;99.90
2889;DHT22;1453;42.708;23.282;2022-11-20T04:24:16;17.90;99.90
2889;DHT22;1453;42.708;23.282;2022-11-20T04:26:42;17.90;99.90
2889;DHT22;1453;42.708;23.282;2022-11-20T04:29:10;17.90;99.90
2889;DHT22;1453;42.708;23.282;2022-11-20T04:31:37;17.80;99.90
2889;DHT22;1453;42.708;23.282;2022-11-20T04:34:05;17.70;99.90
2889;DHT22;1453;42.708;23.282;2022-11-20T04:36:32;17.80;99.90
2889;DHT22;1453;42.708;23.282;2022-11-20T04:39:04;17.70;99.90
2889;DHT22;1453;42.708;23.282;2022-11-20T04:41:33;17.70;99.90
2889;DHT22;1453;42.708;23.282;2022-11-20T04:44:04;17.60;99.90
2889;DHT22;1453;42.708;23.282;2022-11-20T04:46:40;17.70;99.90
2889;DHT22;1453;42.708;23.282;2022-11-20T04:49:07;17.70;99.90
2889;DHT22;1453;42.708;23.282;2022-11-20T04:51:34;17.70;99.90
2889;DHT22;1453;42.708;23.282;2022-11-20T04:54:00;17.70;99.90
2889;DHT22;1453;42.708;23.282;2022-11-20T04:56:26;17.70;99.90
2889;DHT22;1453;42.708;23.282;2022-11-20T04:58:52;17.80;99.90
2889;DHT22;1453;42.708;23.282;2022-11-20T05:01:23;17.80;99.90
2889;DHT22;1453;42.708;23.282;2022-11-20T05:03:50;17.50;99.90
2889;DHT22;1453;42.708;23.282;2022-11-20T05:06:18;17.60;99.90
2889;DHT22;1453;42.708;23.282;2022-11-20T05:08:47;17.60;99.90
2889;DHT22;1453;42.708;23.282;2022-11-20T05:11:17;17.50;99.90
2889;DHT22;1453;42.708;23.282;2022-11-20T05:13:44;17.50;99.90
2889;DHT22;1453;42.708;23.282;2022-11-20T05:16:18;17.70;99.90
2889;DHT22;1453;42.708;23.282;2022-11-20T05:18:45;17.70;99.90
2889;DHT22;1453;42.708;23.282;2022-11-20T05:21:12;17.80;99.90
2889;DHT22;1453;42.708;23.282;2022-11-20T05:23:39;17.90;99.90
2889;DHT22;1453;42.708;23.282;2022-11-20T05:26:07;17.90;99.90
2889;DHT22;1453;42.708;23.282;2022-11-20T05:28:36;17.90;99.90
2889;DHT22;1453;42.708;23.282;2022-11-20T05:31:07;18.00;99.90
2889;DHT22;1453;42.708;23.282;2022-11-20T05:33:35;18.10;99.90
2889;DHT22;1453;42.708;23.282;2022-11-20T05:36:04;18.10;99.90
2889;DHT22;1453;42.708;23.282;2022-11-20T05:38:31;17.90;99.90
2889;DHT22;1453;42.708;23.282;2022-11-20T05:41:14;17.50;99.90
2889;DHT22;1453;42.708;23.282;2022-11-20T05:43:44;17.50;99.90
2889;DHT22;1453;42.708;23.282;2022-11-20T05:46:13;17.50;99.90
2889;DHT22;1453;42.708;23.282;2022-11-20T05:48:41;17.70;99.90
2889;DHT22;1453;42.708;23.282;2022-11-20T05:51:12;17.80;99.90
2889;DHT22;1453;42.708;23.282;2022-11-20T05:53:38;17.90;99.90
2889;DHT22;1453;42.708;23.282;2022-11-20T05:56:10;18.10;99.90
2889;DHT22;1453;42.708;23.282;2022-11-20T05:58:38;17.90;99.90
2889;DHT22;1453;42.708;23.282;2022-11-20T06:03:44;17.90;99.90
2889;DHT22;1453;42.708;23.282;2022-11-20T06:06:16;17.80;99.90
2889;DHT22;1453;42.708;23.282;2022-11-20T06:08:43;17.80;99.90
2889;DHT22;1453;42.708;23.282;2022-11-20T06:11:11;17.90;99.90
2889;DHT22;1453;42.708;23.282;2022-11-20T06:13:38;17.80;99.90
2889;DHT22;1453;42.708;23.282;2022-11-20T06:16:05;17.90;99.90
2889;DHT22;1453;42.708;23.282;2022-11-20T06:18:32;17.90;99.90
2889;DHT22;1453;42.708;23.282;2022-11-20T06:23:29;18.00;99.90
2889;DHT22;1453;42.708;23.282;2022-11-20T06:25:55;18.10;99.90
2889;DHT22;1453;42.708;23.282;2022-11-20T06:28:21;18.20;99.90
2889;DHT22;1453;42.708;23.282;2022-11-20T06:30:47;18.10;99.90
2889;DHT22;1453;42.708;23.282;2022-11-20T06:33:13;18.20;99.90
2889;DHT22;1453;42.708;23.282;2022-11-20T06:35:39;18.10;99.90
2889;DHT22;1453;42.708;23.282;2022-11-20T06:38:04;18.10;99.90
2889;DHT22;1453;42.708;23.282;2022-11-20T06:40:30;18.30;99.90
2889;DHT22;1453;42.708;23.282;2022-11-20T06:42:56;18.40;99.90
2889;DHT22;1453;42.708;23.282;2022-11-20T06:45:22;18.40;99.90
2889;DHT22;1453;42.708;23.282;2022-11-20T06:47:47;18.00;99.90
2889;DHT22;1453;42.708;23.282;2022-11-20T06:50:13;17.70;99.90
2889;DHT22;1453;42.708;23.282;2022-11-20T06:52:39;17.70;99.90
2889;DHT22;1453;42.708;23.282;2022-11-20T06:55:05;18.10;99.90
2889;DHT22;1453;42.708;23.282;2022-11-20T06:57:31;18.40;99.90
2889;DHT22;1453;42.708;23.282;2022-11-20T06:59:57;18.70;99.90
2889;DHT22;1453;42.708;23.282;2022-11-20T07:02:23;18.90;99.90
2889;DHT22;1453;42.708;23.282;2022-11-20T07:04:48;19.00;99.90
2889;DHT22;1453;42.708;23.282;2022-11-20T07:07:14;19.10;99.90
2889;DHT22;1453;42.708;23.282;2022-11-20T07:09:40;18.40;99.90
2889;DHT22;1453;42.708;23.282;2022-11-20T07:12:08;17.80;99.90
2889;DHT22;1453;42.708;23.282;2022-11-20T07:14:34;17.90;99.90
2889;DHT22;1453;42.708;23.282;2022-11-20T07:17:00;18.20;99.90
2889;DHT22;1453;42.708;23.282;2022-11-20T07:19:25;18.40;99.90
2889;DHT22;1453;42.708;23.282;2022-11-20T07:21:51;18.40;99.90
2889;DHT22;1453;42.708;23.282;2022-11-20T07:24:17;18.20;99.90
2889;DHT22;1453;42.708;23.282;2022-11-20T07:26:46;18.00;99.90
2889;DHT22;1453;42.708;23.282;2022-11-20T07:29:13;17.80;99.90
2889;DHT22;1453;42.708;23.282;2022-11-20T07:31:39;17.90;99.90
2889;DHT22;1453;42.708;23.282;2022-11-20T07:34:04;18.10;99.90
2889;DHT22;1453;42.708;23.282;2022-11-20T07:36:30;18.20;99.90
2889;DHT22;1453;42.708;23.282;2022-11-20T07:38:56;18.30;99.90
2889;DHT22;1453;42.708;23.282;2022-11-20T07:41:22;18.30;99.90
2889;DHT22;1453;42.708;23.282;2022-11-20T07:43:48;18.30;99.90
2889;DHT22;1453;42.708;23.282;2022-11-20T07:46:13;18.30;99.90
2889;DHT22;1453;42.708;23.282;2022-11-20T07:48:39;18.30;99.90
2889;DHT22;1453;42.708;23.282;2022-11-20T07:51:05;18.30;99.90
2889;DHT22;1453;42.708;23.282;2022-11-20T07:53:31;18.60;99.90
2889;DHT22;1453;42.708;23.282;2022-11-20T07:56:02;18.50;99.90
2889;DHT22;1453;42.708;23.282;2022-11-20T07:58:32;18.50;99.90
2889;DHT22;1453;42.708;23.282;2022-11-20T08:01:04;18.40;99.90
2889;DHT22;1453;42.708;23.282;2022-11-20T08:03:30;18.40;99.90
2889;DHT22;1453;42.708;23.282;2022-11-20T08:05:59;18.50;99.90
2889;DHT22;1453;42.708;23.282;2022-11-20T08:08:26;18.60;99.90
2889;DHT22;1453;42.708;23.282;2022-11-20T08:10:52;18.70;99.90
2889;DHT22;1453;42.708;23.282;2022-11-20T08:13:38;18.90;99.90
2889;DHT22;1453;42.708;23.282;2022-11-20T08:16:23;19.00;99.90
2889;DHT22;1453;42.708;23.282;2022-11-20T08:18:49;18.90;99.90
2889;DHT22;1453;42.708;23.282;2022-11-20T08:21:15;18.60;99.90
2889;DHT22;1453;42.708;23.282;2022-11-20T08:23:40;18.60;99.90
2889;DHT22;1453;42.708;23.282;2022-11-20T08:26:06;18.40;99.90
2889;DHT22;1453;42.708;23.282;2022-11-20T08:28:32;18.40;99.90
2889;DHT22;1453;42.708;23.282;2022-11-20T08:30:59;18.30;99.90
2889;DHT22;1453;42.708;23.282;2022-11-20T08:33:26;18.20;99.90
2889;DHT22;1453;42.708;23.282;2022-11-20T08:35:52;18.50;99.90
2889;DHT22;1453;42.708;23.282;2022-11-20T08:38:17;18.70;99.90
2889;DHT22;1453;42.708;23.282;2022-11-20T08:40:43;18.70;99.90
2889;DHT22;1453;42.708;23.282;2022-11-20T08:43:29;18.40;99.90
2889;DHT22;1453;42.708;23.282;2022-11-20T08:45:56;18.20;99.90
2889;DHT22;1453;42.708;23.282;2022-11-20T08:48:22;18.30;99.90
2889;DHT22;1453;42.708;23.282;2022-11-20T08:50:48;17.80;99.90
2889;DHT22;1453;42.708;23.282;2022-11-20T08:53:14;16.70;99.90
2889;DHT22;1453;42.708;23.282;2022-11-20T08:55:40;16.30;99.90
2889;DHT22;1453;42.708;23.282;2022-11-20T08:58:06;16.20;99.90
2889;DHT22;1453;42.708;23.282;2022-11-20T09:00:33;16.30;99.90
2889;DHT22;1453;42.708;23.282;2022-11-20T09:02:59;16.00;99.90
2889;DHT22;1453;42.708;23.282;2022-11-20T09:05:26;16.00;99.90
2889;DHT22;1453;42.708;23.282;2022-11-20T09:07:56;15.80;99.90
2889;DHT22;1453;42.708;23.282;2022-11-20T09:10:22;15.70;99.90
2889;DHT22;1453;42.708;23.282;2022-11-20T09:12:49;15.60;99.90
2889;DHT22;1453;42.708;23.282;2022-11-20T09:15:17;15.60;99.90
2889;DHT22;1453;42.708;23.282;2022-11-20T09:17:54;15.40;99.90
2889;DHT22;1453;42.708;23.282;2022-11-20T09:20:21;15.40;99.90
2889;DHT22;1453;42.708;23.282;2022-11-20T09:22:47;15.50;99.90
2889;DHT22;1453;42.708;23.282;2022-11-20T09:25:13;15.30;99.90
2889;DHT22;1453;42.708;23.282;2022-11-20T09:27:39;15.10;99.90
2889;DHT22;1453;42.708;23.282;2022-11-20T09:30:07;15.10;99.90
2889;DHT22;1453;42.708;23.282;2022-11-20T09:32:33;15.10;99.90
2889;DHT22;1453;42.708;23.282;2022-11-20T09:34:59;15.10;99.90
2889;DHT22;1453;42.708;23.282;2022-11-20T09:37:24;15.10;99.90
2889;DHT22;1453;42.708;23.282;2022-11-20T09:39:50;15.20;99.90
2889;DHT22;1453;42.708;23.282;2022-11-20T09:50:20;15.70;99.90
2889;DHT22;1453;42.708;23.282;2022-11-20T09:55:47;16.20;99.90
2889;DHT22;1453;42.708;23.282;2022-11-20T09:58:38;17.20;99.90
2889;DHT22;1453;42.708;23.282;2022-11-20T10:01:14;18.30;99.90
2889;DHT22;1453;42.708;23.282;2022-11-20T10:03:58;19.40;99.90
2889;DHT22;1453;42.708;23.282;2022-11-20T10:06:56;20.50;99.90
2889;DHT22;1453;42.708;23.282;2022-11-20T10:09:37;22.40;99.90
2889;DHT22;1453;42.708;23.282;2022-11-20T10:12:41;23.20;99.90
2889;DHT22;1453;42.708;23.282;2022-11-20T10:18:57;23.30;99.90
2889;DHT22;1453;42.708;23.282;2022-11-20T10:24:43;21.70;99.90
2889;DHT22;1453;42.708;23.282;2022-11-20T10:32:34;20.00;99.90
2889;DHT22;1453;42.708;23.282;2022-11-20T10:37:51;19.60;99.90
2889;DHT22;1453;42.708;23.282;2022-11-20T10:40:34;19.60;99.90
2889;DHT22;1453;42.708;23.282;2022-11-20T10:43:13;19.30;99.90
2889;DHT22;1453;42.708;23.282;2022-11-20T10:46:03;18.30;99.90
2889;DHT22;1453;42.708;23.282;2022-11-20T10:48:35;17.70;99.90
2889;DHT22;1453;42.708;23.282;2022-11-20T10:54:32;16.30;99.90
2889;DHT22;1453;42.708;23.282;2022-11-20T11:00:11;15.70;99.90
2889;DHT22;1453;42.708;23.282;2022-11-20T11:02:54;15.40;99.90
2889;DHT22;1453;42.708;23.282;2022-11-20T11:08:43;14.50;99.90
2889;DHT22;1453;42.708;23.282;2022-11-20T11:11:22;13.40;99.90
2889;DHT22;1453;42.708;23.282;2022-11-20T11:13:51;12.30;99.90
2889;DHT22;1453;42.708;23.282;2022-11-20T11:16:23;12.20;99.90
2889;DHT22;1453;42.708;23.282;2022-11-20T11:18:50;12.30;99.90
2889;DHT22;1453;42.708;23.282;2022-11-20T11:21:25;12.40;99.90
2889;DHT22;1453;42.708;23.282;2022-11-20T11:24:03;12.50;99.90
2889;DHT22;1453;42.708;23.282;2022-11-20T11:26:29;12.50;99.90
2889;DHT22;1453;42.708;23.282;2022-11-20T11:29:03;12.60;99.90
2889;DHT22;1453;42.708;23.282;2022-11-20T11:31:31;12.70;99.90
2889;DHT22;1453;42.708;23.282;2022-11-20T11:34:16;12.60;99.90
2889;DHT22;1453;42.708;23.282;2022-11-20T11:36:52;12.70;99.90
2889;DHT22;1453;42.708;23.282;2022-11-20T11:39:22;12.90;99.90
2889;DHT22;1453;42.708;23.282;2022-11-20T11:41:48;12.70;99.90
2889;DHT22;1453;42.708;23.282;2022-11-20T11:44:30;12.80;99.90
2889;DHT22;1453;42.708;23.282;2022-11-20T11:47:24;13.00;99.90
2889;DHT22;1453;42.708;23.282;2022-11-20T11:55:17;13.50;99.90
2889;DHT22;1453;42.708;23.282;2022-11-20T11:57:54;13.80;99.90
2889;DHT22;1453;42.708;23.282;2022-11-20T12:00:26;13.70;99.90
2889;DHT22;1453;42.708;23.282;2022-11-20T12:03:34;13.60;99.90
2889;DHT22;1453;42.708;23.282;2022-11-20T12:06:10;13.80;99.90
2889;DHT22;1453;42.708;23.282;2022-11-20T12:08:51;13.60;99.90
2889;DHT22;1453;42.708;23.282;2022-11-20T12:11:45;13.80;99.90
2889;DHT22;1453;42.708;23.282;2022-11-20T12:16:52;13.60;99.90
2889;DHT22;1453;42.708;23.282;2022-11-20T12:19:20;13.90;99.90
2889;DHT22;1453;42.708;23.282;2022-11-20T12:24:59;13.80;99.90
2889;DHT22;1453;42.708;23.282;2022-11-20T12:30:54;13.60;99.90
2889;DHT22;1453;42.708;23.282;2022-11-20T12:33:54;13.80;99.90
2889;DHT22;1453;42.708;23.282;2022-11-20T12:37:02;14.10;99.90
2889;DHT22;1453;42.708;23.282;2022-11-20T12:39:58;14.00;99.90
2889;DHT22;1453;42.708;23.282;2022-11-20T13:08:47;13.90;99.90
2889;DHT22;1453;42.708;23.282;2022-11-20T13:11:25;13.90;99.90
2889;DHT22;1453;42.708;23.282;2022-11-20T13:17:17;13.70;99.90
2889;DHT22;1453;42.708;23.282;2022-11-20T13:19:55;13.70;99.90
2889;DHT22;1453;42.708;23.282;2022-11-20T13:27:53;13.60;99.90
2889;DHT22;1453;42.708;23.282;2022-11-20T13:30:24;13.50;99.90
2889;DHT22;1453;42.708;23.282;2022-11-20T13:33:04;13.40;99.90
2889;DHT22;1453;42.708;23.282;2022-11-20T13:35:37;13.50;99.90
2889;DHT22;1453;42.708;23.282;2022-11-20T13:38:14;13.40;99.90
2889;DHT22;1453;42.708;23.282;2022-11-20T13:40:58;13.40;99.90
2889;DHT22;1453;42.708;23.282;2022-11-20T13:43:47;13.50;99.90
2889;DHT22;1453;42.708;23.282;2022-11-20T13:46:15;13.60;99.90
2889;DHT22;1453;42.708;23.282;2022-11-20T13:48:43;13.60;99.90
2889;DHT22;1453;42.708;23.282;2022-11-20T13:54:55;13.80;99.90
2889;DHT22;1453;42.708;23.282;2022-11-20T14:00:32;13.50;99.90
2889;DHT22;1453;42.708;23.282;2022-11-20T14:03:20;13.60;99.90
2889;DHT22;1453;42.708;23.282;2022-11-20T14:05:53;13.50;99.90
2889;DHT22;1453;42.708;23.282;2022-11-20T14:11:18;13.50;99.90
2889;DHT22;1453;42.708;23.282;2022-11-20T14:13:59;13.80;99.90
2889;DHT22;1453;42.708;23.282;2022-11-20T14:16:44;13.80;99.90
2889;DHT22;1453;42.708;23.282;2022-11-20T14:19:27;13.80;99.90
2889;DHT22;1453;42.708;23.282;2022-11-20T14:27:45;14.10;99.90
2889;DHT22;1453;42.708;23.282;2022-11-20T14:30:45;14.00;99.90
2889;DHT22;1453;42.708;23.282;2022-11-20T14:33:14;14.00;99.90
2889;DHT22;1453;42.708;23.282;2022-11-20T14:35:52;14.00;99.90
2889;DHT22;1453;42.708;23.282;2022-11-20T14:38:32;13.90;99.90
2889;DHT22;1453;42.708;23.282;2022-11-20T14:41:26;13.60;99.90
2889;DHT22;1453;42.708;23.282;2022-11-20T14:43:57;13.40;99.90
2889;DHT22;1453;42.708;23.282;2022-11-20T14:46:24;12.90;99.90
2889;DHT22;1453;42.708;23.282;2022-11-20T14:49:01;13.00;99.90
2889;DHT22;1453;42.708;23.282;2022-11-20T14:51:34;12.90;99.90
2889;DHT22;1453;42.708;23.282;2022-11-20T14:54:18;12.70;99.90
2889;DHT22;1453;42.708;23.282;2022-11-20T14:56:54;12.80;99.90
2889;DHT22;1453;42.708;23.282;2022-11-20T14:59:30;12.70;99.90
2889;DHT22;1453;42.708;23.282;2022-11-20T15:04:25;13.00;99.90
2889;DHT22;1453;42.708;23.282;2022-11-20T15:06:54;13.00;99.90
2889;DHT22;1453;42.708;23.282;2022-11-20T15:09:21;13.10;99.90
2889;DHT22;1453;42.708;23.282;2022-11-20T15:11:56;13.10;99.90
2889;DHT22;1453;42.708;23.282;2022-11-20T15:14:25;13.20;99.90
2889;DHT22;1453;42.708;23.282;2022-11-20T15:16:53;13.00;99.90
2889;DHT22;1453;42.708;23.282;2022-11-20T15:19:25;13.10;99.90
2889;DHT22;1453;42.708;23.282;2022-11-20T15:21:53;13.10;99.90
2889;DHT22;1453;42.708;23.282;2022-11-20T15:24:19;13.20;99.90
2889;DHT22;1453;42.708;23.282;2022-11-20T15:26:45;13.00;99.90
2889;DHT22;1453;42.708;23.282;2022-11-20T15:29:13;13.00;99.90
2889;DHT22;1453;42.708;23.282;2022-11-20T15:31:44;13.00;99.90
2889;DHT22;1453;42.708;23.282;2022-11-20T15:34:16;12.70;99.90
2889;DHT22;1453;42.708;23.282;2022-11-20T15:36:43;12.80;99.90
2889;DHT22;1453;42.708;23.282;2022-11-20T15:39:09;12.80;99.90
2889;DHT22;1453;42.708;23.282;2022-11-20T15:41:37;12.80;99.90
2889;DHT22;1453;42.708;23.282;2022-11-20T15:44:04;12.60;99.90
2889;DHT22;1453;42.708;23.282;2022-11-20T15:46:32;12.20;99.90
2889;DHT22;1453;42.708;23.282;2022-11-20T15:49:04;11.90;99.90
2889;DHT22;1453;42.708;23.282;2022-11-20T15:51:38;12.00;99.90
2889;DHT22;1453;42.708;23.282;2022-11-20T15:54:13;11.90;99.90
2889;DHT22;1453;42.708;23.282;2022-11-20T15:56:40;11.90;99.90
2889;DHT22;1453;42.708;23.282;2022-11-20T15:59:05;11.70;99.90
2889;DHT22;1453;42.708;23.282;2022-11-20T16:01:31;11.80;99.90
2889;DHT22;1453;42.708;23.282;2022-11-20T16:03:57;11.80;99.90
2889;DHT22;1453;42.708;23.282;2022-11-20T16:06:24;11.70;99.90
2889;DHT22;1453;42.708;23.282;2022-11-20T16:08:50;11.70;99.90
2889;DHT22;1453;42.708;23.282;2022-11-20T16:11:17;11.80;99.90
2889;DHT22;1453;42.708;23.282;2022-11-20T16:13:43;12.00;99.90
2889;DHT22;1453;42.708;23.282;2022-11-20T16:16:35;12.10;99.90
2889;DHT22;1453;42.708;23.282;2022-11-20T16:19:03;11.90;99.90
2889;DHT22;1453;42.708;23.282;2022-11-20T16:21:29;12.00;99.90
2889;DHT22;1453;42.708;23.282;2022-11-20T16:24:01;12.20;99.90
2889;DHT22;1453;42.708;23.282;2022-11-20T16:26:29;12.30;99.90
2889;DHT22;1453;42.708;23.282;2022-11-20T16:28:55;12.50;99.90
2889;DHT22;1453;42.708;23.282;2022-11-20T16:31:21;12.60;99.90
2889;DHT22;1453;42.708;23.282;2022-11-20T16:33:51;12.70;99.90
2889;DHT22;1453;42.708;23.282;2022-11-20T16:36:19;12.70;99.90
2889;DHT22;1453;42.708;23.282;2022-11-20T16:38:46;12.80;99.90
2889;DHT22;1453;42.708;23.282;2022-11-20T16:41:12;12.80;99.90
2889;DHT22;1453;42.708;23.282;2022-11-20T16:43:45;12.80;99.90
2889;DHT22;1453;42.708;23.282;2022-11-20T16:46:16;12.50;99.90
2889;DHT22;1453;42.708;23.282;2022-11-20T16:48:44;12.40;99.90
2889;DHT22;1453;42.708;23.282;2022-11-20T16:51:12;12.40;99.90
2889;DHT22;1453;42.708;23.282;2022-11-20T16:53:38;12.30;99.90
2889;DHT22;1453;42.708;23.282;2022-11-20T16:56:12;11.90;99.90
2889;DHT22;1453;42.708;23.282;2022-11-20T16:58:47;11.70;99.90
2889;DHT22;1453;42.708;23.282;2022-11-20T17:01:15;11.80;99.90
2889;DHT22;1453;42.708;23.282;2022-11-20T17:03:43;12.00;99.90
2889;DHT22;1453;42.708;23.282;2022-11-20T17:06:21;12.20;99.90
2889;DHT22;1453;42.708;23.282;2022-11-20T17:08:49;11.70;99.90
2889;DHT22;1453;42.708;23.282;2022-11-20T17:11:17;11.70;99.90
2889;DHT22;1453;42.708;23.282;2022-11-20T17:13:44;11.90;99.90
2889;DHT22;1453;42.708;23.282;2022-11-20T17:16:16;12.10;99.90
2889;DHT22;1453;42.708;23.282;2022-11-20T17:18:49;12.20;99.90
2889;DHT22;1453;42.708;23.282;2022-11-20T17:21:17;12.30;99.90
2889;DHT22;1453;42.708;23.282;2022-11-20T17:23:44;12.30;99.90
2889;DHT22;1453;42.708;23.282;2022-11-20T17:26:18;12.20;99.90
2889;DHT22;1453;42.708;23.282;2022-11-20T17:28:54;12.20;99.90
2889;DHT22;1453;42.708;23.282;2022-11-20T17:31:25;12.10;99.90
2889;DHT22;1453;42.708;23.282;2022-11-20T17:33:51;12.00;99.90
2889;DHT22;1453;42.708;23.282;2022-11-20T17:36:18;12.00;99.90
2889;DHT22;1453;42.708;23.282;2022-11-20T17:38:45;12.00;99.90
2889;DHT22;1453;42.708;23.282;2022-11-20T17:41:16;12.00;99.90
2889;DHT22;1453;42.708;23.282;2022-11-20T17:43:44;12.00;99.90
2889;DHT22;1453;42.708;23.282;2022-11-20T17:46:18;12.00;99.90
2889;DHT22;1453;42.708;23.282;2022-11-20T17:48:45;12.00;99.90
2889;DHT22;1453;42.708;23.282;2022-11-20T17:51:20;12.00;99.90
2889;DHT22;1453;42.708;23.282;2022-11-20T17:53:51;12.10;99.90
2889;DHT22;1453;42.708;23.282;2022-11-20T17:56:18;12.00;99.90
2889;DHT22;1453;42.708;23.282;2022-11-20T17:59:07;11.90;99.90
2889;DHT22;1453;42.708;23.282;2022-11-20T18:01:34;11.80;99.90